Řízení letového provozu České republiky
Letiste: LKMT Aktualizace: 29.08.2016 12:38:06  UTC
 METAR LKMT 29.08. 12:30 ...
METAR LKMT 291230Z 15005KT 110V180 9999 FEW043 23/18 Q1017 NOSIG RMK REG QNH 1014=
 TAF LKMT 29.08. 11:00 ...
TAF LKMT 291100Z 2912/3018 22010KT 9999 SCT035      TEMPO 2912/2920 SHRA SCT025TCU      PROB30 TEMPO 2912/2920 4000 TSRA SCT025CB      BECMG 2920/2922 VRB02KT      TEMPO 3002/3006 4000 BR NSC      PROB30 TEMPO 3002/3006 2000 MIFG      BECMG 3006/3008 36010KT      BECMG 3012/3014 CAVOK=